sensor_id;sensor_type;location;lat;lon;timestamp;pressure;altitude;pressure_sealevel;temperature;humidity
7990;BME280;4040;42.848;23.034;2023-06-22T00:01:44;95332.81;;;16.96;100.00
7990;BME280;4040;42.848;23.034;2023-06-22T00:07:33;95319.03;;;16.87;100.00
7990;BME280;4040;42.848;23.034;2023-06-22T00:13:41;95312.91;;;16.83;100.00
7990;BME280;4040;42.848;23.034;2023-06-22T00:19:29;95299.69;;;16.69;100.00
7990;BME280;4040;42.848;23.034;2023-06-22T00:25:18;95302.41;;;16.69;100.00
7990;BME280;4040;42.848;23.034;2023-06-22T00:31:08;95308.38;;;16.64;100.00
7990;BME280;4040;42.848;23.034;2023-06-22T00:36:56;95303.44;;;16.59;100.00
7990;BME280;4040;42.848;23.034;2023-06-22T00:42:46;95299.69;;;16.69;100.00
7990;BME280;4040;42.848;23.034;2023-06-22T00:48:36;95313.38;;;16.66;100.00
7990;BME280;4040;42.848;23.034;2023-06-22T00:54:25;95328.94;;;16.65;100.00
7990;BME280;4040;42.848;23.034;2023-06-22T01:00:15;95326.06;;;16.56;100.00
7990;BME280;4040;42.848;23.034;2023-06-22T01:10:32;95329.09;;;16.26;100.00
7990;BME280;4040;42.848;23.034;2023-06-22T01:16:25;95337.50;;;16.32;100.00
7990;BME280;4040;42.848;23.034;2023-06-22T01:22:16;95333.50;;;16.20;100.00
7990;BME280;4040;42.848;23.034;2023-06-22T01:28:23;95279.81;;;15.76;100.00
7990;BME280;4040;42.848;23.034;2023-06-22T01:34:15;95340.81;;;16.07;100.00
7990;BME280;4040;42.848;23.034;2023-06-22T01:40:06;95345.22;;;16.01;100.00
7990;BME280;4040;42.848;23.034;2023-06-22T01:46:06;95351.28;;;15.73;100.00
7990;BME280;4040;42.848;23.034;2023-06-22T01:51:57;95295.25;;;15.24;100.00
7990;BME280;4040;42.848;23.034;2023-06-22T01:57:45;95353.13;;;15.60;100.00
7990;BME280;4040;42.848;23.034;2023-06-22T02:03:35;95355.19;;;15.72;100.00
7990;BME280;4040;42.848;23.034;2023-06-22T02:06:07;95358.31;;;15.71;100.00
7990;BME280;4040;42.848;23.034;2023-06-22T02:12:00;95369.09;;;15.74;100.00
7990;BME280;4040;42.848;23.034;2023-06-22T02:17:51;95364.72;;;15.80;100.00
7990;BME280;4040;42.848;23.034;2023-06-22T02:23:39;95357.56;;;15.70;100.00
7990;BME280;4040;42.848;23.034;2023-06-22T02:29:30;95371.75;;;15.58;100.00
7990;BME280;4040;42.848;23.034;2023-06-22T02:35:18;95361.66;;;15.59;100.00
7990;BME280;4040;42.848;23.034;2023-06-22T02:41:07;95355.13;;;15.56;100.00
7990;BME280;4040;42.848;23.034;2023-06-22T02:47:01;95373.63;;;15.42;100.00
7990;BME280;4040;42.848;23.034;2023-06-22T02:52:51;95376.56;;;15.51;100.00
7990;BME280;4040;42.848;23.034;2023-06-22T02:58:39;95389.66;;;15.56;100.00
7990;BME280;4040;42.848;23.034;2023-06-22T03:04:30;95388.88;;;15.55;100.00
7990;BME280;4040;42.848;23.034;2023-06-22T03:10:19;95392.78;;;15.54;100.00
7990;BME280;4040;42.848;23.034;2023-06-22T03:16:08;95402.13;;;15.53;100.00
7990;BME280;4040;42.848;23.034;2023-06-22T03:21:59;95401.22;;;15.60;100.00
7990;BME280;4040;42.848;23.034;2023-06-22T03:27:49;95412.84;;;15.60;100.00
7990;BME280;4040;42.848;23.034;2023-06-22T03:33:37;95409.91;;;15.71;100.00
7990;BME280;4040;42.848;23.034;2023-06-22T03:39:28;95416.03;;;15.75;100.00
7990;BME280;4040;42.848;23.034;2023-06-22T03:45:17;95426.19;;;15.90;100.00
7990;BME280;4040;42.848;23.034;2023-06-22T03:51:06;95395.03;;;15.95;100.00
7990;BME280;4040;42.848;23.034;2023-06-22T03:56:56;95376.44;;;15.93;100.00
7990;BME280;4040;42.848;23.034;2023-06-22T04:02:45;95402.53;;;16.42;100.00
7990;BME280;4040;42.848;23.034;2023-06-22T04:09:05;95401.84;;;16.70;100.00
7990;BME280;4040;42.848;23.034;2023-06-22T04:14:55;95391.97;;;17.08;100.00
7990;BME280;4040;42.848;23.034;2023-06-22T04:20:44;95379.63;;;17.48;100.00
7990;BME280;4040;42.848;23.034;2023-06-22T04:26:33;95382.78;;;18.25;100.00
7990;BME280;4040;42.848;23.034;2023-06-22T04:32:25;95392.72;;;20.14;100.00
7990;BME280;4040;42.848;23.034;2023-06-22T04:38:14;95366.28;;;21.52;100.00
7990;BME280;4040;42.848;23.034;2023-06-22T04:44:03;95364.03;;;23.40;100.00
7990;BME280;4040;42.848;23.034;2023-06-22T04:49:53;95356.16;;;24.29;100.00
7990;BME280;4040;42.848;23.034;2023-06-22T04:55:42;95364.63;;;24.89;100.00
7990;BME280;4040;42.848;23.034;2023-06-22T05:01:33;95355.13;;;26.21;100.00
7990;BME280;4040;42.848;23.034;2023-06-22T05:07:23;95354.41;;;27.29;95.42
7990;BME280;4040;42.848;23.034;2023-06-22T05:13:13;95363.78;;;28.56;82.68
7990;BME280;4040;42.848;23.034;2023-06-22T05:19:02;95380.09;;;29.20;73.56
7990;BME280;4040;42.848;23.034;2023-06-22T05:24:52;95383.13;;;29.06;73.94
7990;BME280;4040;42.848;23.034;2023-06-22T05:30:41;95379.22;;;29.58;74.91
7990;BME280;4040;42.848;23.034;2023-06-22T05:36:30;95379.56;;;29.27;69.44
7990;BME280;4040;42.848;23.034;2023-06-22T05:42:20;95377.34;;;28.87;72.94
7990;BME280;4040;42.848;23.034;2023-06-22T05:48:08;95378.88;;;28.77;73.54
7990;BME280;4040;42.848;23.034;2023-06-22T05:53:57;95379.25;;;29.47;73.67
7990;BME280;4040;42.848;23.034;2023-06-22T05:59:47;95368.81;;;28.63;72.48
7990;BME280;4040;42.848;23.034;2023-06-22T06:05:36;95380.84;;;29.21;71.01
7990;BME280;4040;42.848;23.034;2023-06-22T06:15:49;95366.56;;;30.49;69.11
7990;BME280;4040;42.848;23.034;2023-06-22T06:21:38;95362.22;;;30.24;64.12
7990;BME280;4040;42.848;23.034;2023-06-22T06:27:27;95366.22;;;29.20;67.54
7990;BME280;4040;42.848;23.034;2023-06-22T06:33:17;95378.88;;;28.55;75.99
7990;BME280;4040;42.848;23.034;2023-06-22T06:39:07;95361.19;;;28.03;74.12
7990;BME280;4040;42.848;23.034;2023-06-22T06:44:57;95364.06;;;27.61;76.49
7990;BME280;4040;42.848;23.034;2023-06-22T06:50:47;95361.44;;;28.11;77.95
7990;BME280;4040;42.848;23.034;2023-06-22T06:56:35;95351.09;;;30.24;67.54
7990;BME280;4040;42.848;23.034;2023-06-22T07:02:25;95356.28;;;32.74;55.80
7990;BME280;4040;42.848;23.034;2023-06-22T07:08:16;95354.22;;;33.45;52.41
7990;BME280;4040;42.848;23.034;2023-06-22T07:18:26;95357.97;;;30.17;64.93
7990;BME280;4040;42.848;23.034;2023-06-22T07:24:16;95360.50;;;32.62;59.32
7990;BME280;4040;42.848;23.034;2023-06-22T07:30:06;95356.00;;;34.41;53.35
7990;BME280;4040;42.848;23.034;2023-06-22T07:35:55;95356.84;;;34.90;49.26
7990;BME280;4040;42.848;23.034;2023-06-22T07:41:45;95356.53;;;34.06;52.90
7990;BME280;4040;42.848;23.034;2023-06-22T07:47:34;95342.94;;;35.96;49.39
7990;BME280;4040;42.848;23.034;2023-06-22T07:53:23;95342.41;;;37.61;43.75
7990;BME280;4040;42.848;23.034;2023-06-22T07:59:13;95337.75;;;38.98;40.96
7990;BME280;4040;42.848;23.034;2023-06-22T08:05:02;95333.69;;;40.98;37.35
7990;BME280;4040;42.848;23.034;2023-06-22T08:10:51;95315.44;;;41.08;36.03
7990;BME280;4040;42.848;23.034;2023-06-22T08:21:02;95322.72;;;45.16;30.73
7990;BME280;4040;42.848;23.034;2023-06-22T08:26:51;95330.03;;;45.90;29.14
7990;BME280;4040;42.848;23.034;2023-06-22T08:32:40;95290.59;;;44.03;28.43
7990;BME280;4040;42.848;23.034;2023-06-22T08:38:30;95303.75;;;42.54;30.82
7990;BME280;4040;42.848;23.034;2023-06-22T08:44:19;95310.69;;;43.96;28.22
7990;BME280;4040;42.848;23.034;2023-06-22T08:50:09;95305.72;;;46.37;27.09
7990;BME280;4040;42.848;23.034;2023-06-22T08:55:59;95288.59;;;45.16;27.98
7990;BME280;4040;42.848;23.034;2023-06-22T09:01:48;95306.31;;;42.31;30.06
7990;BME280;4040;42.848;23.034;2023-06-22T09:07:37;95302.03;;;41.92;31.36
7990;BME280;4040;42.848;23.034;2023-06-22T09:13:29;95303.38;;;44.58;28.68
7990;BME280;4040;42.848;23.034;2023-06-22T09:23:40;95283.13;;;45.20;28.24
7990;BME280;4040;42.848;23.034;2023-06-22T09:29:30;95289.56;;;45.09;28.59
7990;BME280;4040;42.848;23.034;2023-06-22T09:35:20;95288.19;;;44.65;27.11
7990;BME280;4040;42.848;23.034;2023-06-22T09:41:09;95285.03;;;45.52;27.02
7990;BME280;4040;42.848;23.034;2023-06-22T09:47:00;95277.66;;;45.95;25.58
7990;BME280;4040;42.848;23.034;2023-06-22T09:52:49;95249.25;;;44.44;27.84
7990;BME280;4040;42.848;23.034;2023-06-22T09:58:42;95260.88;;;43.30;28.83
7990;BME280;4040;42.848;23.034;2023-06-22T10:04:32;95276.91;;;45.58;25.30
7990;BME280;4040;42.848;23.034;2023-06-22T10:10:21;95256.78;;;43.54;26.88
7990;BME280;4040;42.848;23.034;2023-06-22T10:16:10;95274.75;;;41.87;30.18
7990;BME280;4040;42.848;23.034;2023-06-22T10:22:30;95267.59;;;42.05;28.82
7990;BME280;4040;42.848;23.034;2023-06-22T10:28:19;95253.84;;;40.61;31.31
7990;BME280;4040;42.848;23.034;2023-06-22T10:34:08;95254.03;;;41.18;29.93
7990;BME280;4040;42.848;23.034;2023-06-22T10:39:57;95253.41;;;42.24;27.25
7990;BME280;4040;42.848;23.034;2023-06-22T10:45:46;95248.50;;;40.29;31.46
7990;BME280;4040;42.848;23.034;2023-06-22T10:51:35;95232.38;;;36.35;35.21
7990;BME280;4040;42.848;23.034;2023-06-22T10:57:25;95239.97;;;34.83;37.97
7990;BME280;4040;42.848;23.034;2023-06-22T11:03:14;95237.06;;;33.01;43.77
7990;BME280;4040;42.848;23.034;2023-06-22T11:09:03;95242.31;;;33.04;41.90
7990;BME280;4040;42.848;23.034;2023-06-22T11:14:53;95236.06;;;33.37;44.79
7990;BME280;4040;42.848;23.034;2023-06-22T11:20:44;95232.81;;;33.93;40.94
7990;BME280;4040;42.848;23.034;2023-06-22T11:26:34;95220.91;;;34.33;41.42
7990;BME280;4040;42.848;23.034;2023-06-22T11:32:26;95225.44;;;34.85;40.25
7990;BME280;4040;42.848;23.034;2023-06-22T11:38:14;95224.38;;;34.47;39.07
7990;BME280;4040;42.848;23.034;2023-06-22T11:44:04;95231.13;;;34.10;42.64
7990;BME280;4040;42.848;23.034;2023-06-22T11:49:54;95197.69;;;33.84;41.94
7990;BME280;4040;42.848;23.034;2023-06-22T11:55:42;95213.66;;;33.76;42.03
7990;BME280;4040;42.848;23.034;2023-06-22T12:01:31;95207.25;;;34.09;42.65
7990;BME280;4040;42.848;23.034;2023-06-22T12:07:22;95221.06;;;32.88;50.82
7990;BME280;4040;42.848;23.034;2023-06-22T12:13:10;95222.41;;;30.58;63.58
7990;BME280;4040;42.848;23.034;2023-06-22T12:15:37;95234.09;;;29.57;65.52
7990;BME280;4040;42.848;23.034;2023-06-22T12:21:26;95252.41;;;28.19;72.45
7990;BME280;4040;42.848;23.034;2023-06-22T12:27:27;95254.75;;;26.60;100.00
7990;BME280;4040;42.848;23.034;2023-06-22T12:33:17;95249.28;;;26.35;100.00
7990;BME280;4040;42.848;23.034;2023-06-22T12:39:06;95267.91;;;26.39;100.00
7990;BME280;4040;42.848;23.034;2023-06-22T12:44:56;95276.03;;;26.18;100.00
7990;BME280;4040;42.848;23.034;2023-06-22T12:50:46;95269.34;;;25.48;100.00
7990;BME280;4040;42.848;23.034;2023-06-22T12:56:35;95268.63;;;24.33;100.00
7990;BME280;4040;42.848;23.034;2023-06-22T13:02:25;95282.03;;;23.01;100.00
7990;BME280;4040;42.848;23.034;2023-06-22T13:08:14;95305.19;;;22.29;100.00
7990;BME280;4040;42.848;23.034;2023-06-22T13:14:03;95322.66;;;22.08;100.00
7990;BME280;4040;42.848;23.034;2023-06-22T13:19:53;95343.44;;;21.82;100.00
7990;BME280;4040;42.848;23.034;2023-06-22T13:25:41;95335.56;;;21.66;100.00
7990;BME280;4040;42.848;23.034;2023-06-22T13:31:30;95332.66;;;21.43;100.00
7990;BME280;4040;42.848;23.034;2023-06-22T13:37:20;95344.06;;;21.68;100.00
7990;BME280;4040;42.848;23.034;2023-06-22T13:43:09;95341.03;;;21.66;100.00
7990;BME280;4040;42.848;23.034;2023-06-22T13:48:58;95337.22;;;21.64;100.00
7990;BME280;4040;42.848;23.034;2023-06-22T13:54:48;95348.63;;;21.80;100.00
7990;BME280;4040;42.848;23.034;2023-06-22T14:00:36;95354.38;;;22.00;100.00
7990;BME280;4040;42.848;23.034;2023-06-22T14:06:25;95363.94;;;22.14;100.00
7990;BME280;4040;42.848;23.034;2023-06-22T14:12:15;95332.69;;;22.11;100.00
7990;BME280;4040;42.848;23.034;2023-06-22T14:18:04;95327.53;;;22.04;100.00
7990;BME280;4040;42.848;23.034;2023-06-22T14:23:54;95348.44;;;22.43;100.00
7990;BME280;4040;42.848;23.034;2023-06-22T14:29:44;95342.06;;;22.93;100.00
7990;BME280;4040;42.848;23.034;2023-06-22T14:35:33;95349.22;;;23.23;100.00
7990;BME280;4040;42.848;23.034;2023-06-22T14:41:21;95334.34;;;23.67;100.00
7990;BME280;4040;42.848;23.034;2023-06-22T14:47:12;95333.97;;;23.89;100.00
7990;BME280;4040;42.848;23.034;2023-06-22T14:53:00;95320.28;;;23.80;100.00
7990;BME280;4040;42.848;23.034;2023-06-22T14:58:49;95294.28;;;23.81;100.00
7990;BME280;4040;42.848;23.034;2023-06-22T15:04:40;95278.16;;;24.03;100.00
7990;BME280;4040;42.848;23.034;2023-06-22T15:10:28;95275.25;;;24.41;100.00
7990;BME280;4040;42.848;23.034;2023-06-22T15:16:17;95275.34;;;24.81;100.00
7990;BME280;4040;42.848;23.034;2023-06-22T15:22:07;95269.81;;;24.81;100.00
7990;BME280;4040;42.848;23.034;2023-06-22T15:27:56;95286.69;;;24.88;100.00
7990;BME280;4040;42.848;23.034;2023-06-22T15:33:45;95271.94;;;24.37;100.00
7990;BME280;4040;42.848;23.034;2023-06-22T15:39:35;95271.72;;;24.20;100.00
7990;BME280;4040;42.848;23.034;2023-06-22T15:45:24;95276.06;;;24.27;100.00
7990;BME280;4040;42.848;23.034;2023-06-22T15:51:13;95274.22;;;24.73;100.00
7990;BME280;4040;42.848;23.034;2023-06-22T15:57:03;95267.66;;;25.30;100.00
7990;BME280;4040;42.848;23.034;2023-06-22T16:02:52;95267.06;;;25.66;100.00
7990;BME280;4040;42.848;23.034;2023-06-22T16:08:41;95258.72;;;26.23;100.00
7990;BME280;4040;42.848;23.034;2023-06-22T16:14:31;95259.00;;;26.55;100.00
7990;BME280;4040;42.848;23.034;2023-06-22T16:20:20;95247.53;;;26.73;100.00
7990;BME280;4040;42.848;23.034;2023-06-22T16:26:20;95268.13;;;27.25;100.00
7990;BME280;4040;42.848;23.034;2023-06-22T16:32:10;95260.84;;;27.33;100.00
7990;BME280;4040;42.848;23.034;2023-06-22T16:37:59;95274.75;;;26.91;100.00
7990;BME280;4040;42.848;23.034;2023-06-22T16:43:48;95271.47;;;26.45;100.00
7990;BME280;4040;42.848;23.034;2023-06-22T16:49:38;95262.84;;;26.02;100.00
7990;BME280;4040;42.848;23.034;2023-06-22T16:55:28;95274.09;;;25.93;100.00
7990;BME280;4040;42.848;23.034;2023-06-22T17:01:17;95257.66;;;25.84;100.00
7990;BME280;4040;42.848;23.034;2023-06-22T17:07:10;95269.25;;;25.88;100.00
7990;BME280;4040;42.848;23.034;2023-06-22T17:13:02;95266.81;;;25.70;100.00
7990;BME280;4040;42.848;23.034;2023-06-22T17:18:52;95261.53;;;25.41;100.00
7990;BME280;4040;42.848;23.034;2023-06-22T17:24:44;95256.97;;;25.18;100.00
7990;BME280;4040;42.848;23.034;2023-06-22T17:30:32;95248.88;;;24.89;100.00
7990;BME280;4040;42.848;23.034;2023-06-22T17:36:21;95252.72;;;24.77;100.00
7990;BME280;4040;42.848;23.034;2023-06-22T17:42:11;95260.69;;;24.55;100.00
7990;BME280;4040;42.848;23.034;2023-06-22T17:47:59;95261.59;;;24.32;100.00
7990;BME280;4040;42.848;23.034;2023-06-22T17:54:06;95262.94;;;24.22;100.00
7990;BME280;4040;42.848;23.034;2023-06-22T17:59:56;95268.47;;;24.07;100.00
7990;BME280;4040;42.848;23.034;2023-06-22T18:05:46;95272.50;;;23.92;100.00
7990;BME280;4040;42.848;23.034;2023-06-22T18:11:36;95280.53;;;23.81;100.00
7990;BME280;4040;42.848;23.034;2023-06-22T18:17:30;95283.69;;;23.74;100.00
7990;BME280;4040;42.848;23.034;2023-06-22T18:23:19;95240.44;;;23.31;100.00
7990;BME280;4040;42.848;23.034;2023-06-22T18:33:31;95299.81;;;23.52;100.00
7990;BME280;4040;42.848;23.034;2023-06-22T18:39:21;95301.25;;;23.24;100.00
7990;BME280;4040;42.848;23.034;2023-06-22T18:45:22;95304.09;;;23.15;100.00
7990;BME280;4040;42.848;23.034;2023-06-22T18:51:15;95324.47;;;23.00;100.00
7990;BME280;4040;42.848;23.034;2023-06-22T18:57:12;95334.13;;;22.95;100.00
7990;BME280;4040;42.848;23.034;2023-06-22T19:03:01;95294.81;;;22.66;100.00
7990;BME280;4040;42.848;23.034;2023-06-22T19:09:13;95347.91;;;22.86;100.00
7990;BME280;4040;42.848;23.034;2023-06-22T19:15:08;95337.97;;;22.65;100.00
7990;BME280;4040;42.848;23.034;2023-06-22T19:21:00;95322.84;;;22.37;100.00
7990;BME280;4040;42.848;23.034;2023-06-22T19:26:52;95343.06;;;22.07;100.00
7990;BME280;4040;42.848;23.034;2023-06-22T19:32:41;95347.94;;;22.03;100.00
7990;BME280;4040;42.848;23.034;2023-06-22T19:38:30;95349.25;;;21.75;100.00
7990;BME280;4040;42.848;23.034;2023-06-22T19:44:28;95345.28;;;21.40;100.00
7990;BME280;4040;42.848;23.034;2023-06-22T19:50:17;95347.13;;;21.25;100.00
7990;BME280;4040;42.848;23.034;2023-06-22T19:56:06;95355.63;;;21.18;100.00
7990;BME280;4040;42.848;23.034;2023-06-22T20:01:56;95343.16;;;20.99;100.00
7990;BME280;4040;42.848;23.034;2023-06-22T20:07:45;95344.63;;;20.82;100.00
7990;BME280;4040;42.848;23.034;2023-06-22T20:13:34;95336.09;;;20.72;100.00
7990;BME280;4040;42.848;23.034;2023-06-22T20:19:35;95333.91;;;20.58;100.00
7990;BME280;4040;42.848;23.034;2023-06-22T20:25:29;95332.06;;;20.46;100.00
7990;BME280;4040;42.848;23.034;2023-06-22T20:35:33;95312.84;;;20.19;100.00
7990;BME280;4040;42.848;23.034;2023-06-22T20:41:24;95318.84;;;20.05;100.00
7990;BME280;4040;42.848;23.034;2023-06-22T20:47:16;95316.63;;;19.91;100.00
7990;BME280;4040;42.848;23.034;2023-06-22T20:53:08;95324.84;;;19.91;100.00
7990;BME280;4040;42.848;23.034;2023-06-22T20:58:56;95317.47;;;19.79;100.00
7990;BME280;4040;42.848;23.034;2023-06-22T21:04:45;95319.69;;;19.62;100.00
7990;BME280;4040;42.848;23.034;2023-06-22T21:10:37;95315.22;;;19.56;100.00
7990;BME280;4040;42.848;23.034;2023-06-22T21:16:26;95328.56;;;19.54;100.00
7990;BME280;4040;42.848;23.034;2023-06-22T21:22:15;95326.84;;;19.47;100.00
7990;BME280;4040;42.848;23.034;2023-06-22T21:28:05;95318.78;;;19.44;100.00
7990;BME280;4040;42.848;23.034;2023-06-22T21:38:16;95316.38;;;19.24;100.00
7990;BME280;4040;42.848;23.034;2023-06-22T21:44:06;95318.13;;;19.18;100.00
7990;BME280;4040;42.848;23.034;2023-06-22T21:49:55;95318.19;;;19.06;100.00
7990;BME280;4040;42.848;23.034;2023-06-22T21:55:45;95304.75;;;18.99;100.00
7990;BME280;4040;42.848;23.034;2023-06-22T22:08:29;95310.38;;;18.49;100.00
7990;BME280;4040;42.848;23.034;2023-06-22T22:14:18;95312.78;;;18.47;100.00
7990;BME280;4040;42.848;23.034;2023-06-22T22:20:08;95303.28;;;18.39;100.00
7990;BME280;4040;42.848;23.034;2023-06-22T22:25:58;95301.00;;;18.25;100.00
7990;BME280;4040;42.848;23.034;2023-06-22T22:31:47;95293.59;;;18.25;100.00
7990;BME280;4040;42.848;23.034;2023-06-22T22:37:35;95285.31;;;18.29;100.00
7990;BME280;4040;42.848;23.034;2023-06-22T22:43:25;95291.41;;;18.08;100.00
7990;BME280;4040;42.848;23.034;2023-06-22T22:49:14;95281.38;;;18.05;100.00
7990;BME280;4040;42.848;23.034;2023-06-22T22:55:04;95279.97;;;18.00;100.00
7990;BME280;4040;42.848;23.034;2023-06-22T23:00:55;95274.88;;;17.90;100.00
7990;BME280;4040;42.848;23.034;2023-06-22T23:03:23;95277.91;;;17.92;100.00
7990;BME280;4040;42.848;23.034;2023-06-22T23:09:21;95274.75;;;17.81;100.00
7990;BME280;4040;42.848;23.034;2023-06-22T23:15:10;95271.47;;;17.86;100.00
7990;BME280;4040;42.848;23.034;2023-06-22T23:21:01;95282.91;;;17.81;100.00
7990;BME280;4040;42.848;23.034;2023-06-22T23:26:52;95241.72;;;17.54;100.00
7990;BME280;4040;42.848;23.034;2023-06-22T23:32:43;95253.69;;;17.44;100.00
7990;BME280;4040;42.848;23.034;2023-06-22T23:38:33;95279.38;;;17.43;100.00
7990;BME280;4040;42.848;23.034;2023-06-22T23:44:21;95283.16;;;17.33;100.00
7990;BME280;4040;42.848;23.034;2023-06-22T23:50:12;95278.84;;;17.36;100.00
7990;BME280;4040;42.848;23.034;2023-06-22T23:56:02;95278.34;;;17.25;100.00
